Kezdőlap
METAR-TAF:

METAR-TAF

Repülőterek :

Angers, Franciaország

földrajzi szélesség: 47-33-37N, földrajzi hosszúság: 000-18-44W, magasság: 59 m

Jelenlegi meteorológiai megfigyelések

A jelentés 47 perccel ezelõtt készült, 18:30 UTC
Délnyugati szél 7 kt
Hőmérséklet 10°C
Páratartalom 82%
Légköri nyomás 1031 hPa
Látótávolság 10 km, vagy több
Borult 2100 lábon

METAR: LFJR 221830Z AUTO 23007KT 9999 OVC021 10/07 Q1031

Idő: 20:17 (19:17 UTC)


TAF: hiányzik

Meteorológiai megfigyelések és előrejelzések több, mint 4000 repülőtéren (METAR és TAF jelentéseket).

A térképen piros és sárga pontok jelzik az elérhető meteorológiai állomásokat.

Mozgassa az egeret a pont fölött, hogy megjelenjen az állomás neve.

Azután kattintson az időjárási megfigyelések és előrejelzések megtekintéséhez.

A térkép megváltoztatása: kattintson a fekete keresztel jelölt zöld gombra ráközelítéshez, a vonallal jelölt zöld gombra távolításhoz, vagy a zöld nyilakra a szomszédos térképek eléréséhez.


METAR-TAF: